Time;durP1;ratioP1;P1;durP2;ratioP2;P2;SDS_P1;SDS_P2;PMS_P1;PMS_P2;Temp;Humidity;BMP_temperature;BMP_pressure;BME280_temperature;BME280_humidity;BME280_pressure;Samples;Min_cycle;Max_cycle;Signal;HPM_P1;HPM_P2
2022/02/12 00:02:11;;;;;;;0.50;0.50;;;-1.30;96.50;;;;;;5013317;28;20462;-70
2022/02/12 00:04:36;;;;;;;0.40;0.40;;;-1.50;96.80;;;;;;5013923;28;20456;-70
2022/02/12 00:07:02;;;;;;;0.50;0.50;;;-1.40;97.00;;;;;;5013475;28;20578;-70
2022/02/12 00:09:28;;;;;;;0.50;0.50;;;-1.40;97.10;;;;;;5013646;28;20175;-70
2022/02/12 00:11:54;;;;;;;0.77;0.77;;;-1.30;97.20;;;;;;5013836;28;20430;-71
2022/02/12 00:14:19;;;;;;;0.30;0.30;;;-1.30;97.20;;;;;;5013875;28;20683;-70
2022/02/12 00:16:45;;;;;;;0.40;0.40;;;-1.20;97.10;;;;;;5013638;28;20168;-70
2022/02/12 00:19:11;;;;;;;0.40;0.40;;;-1.40;96.90;;;;;;5013734;28;20247;-70
2022/02/12 00:21:37;;;;;;;0.40;0.40;;;-1.40;96.90;;;;;;5013475;28;20754;-70
2022/02/12 00:24:03;;;;;;;0.50;0.50;;;-1.30;97.10;;;;;;5013534;28;20683;-71
2022/02/12 00:26:28;;;;;;;0.40;0.40;;;-1.30;97.20;;;;;;5013444;28;20180;-71
2022/02/12 00:28:54;;;;;;;0.40;0.40;;;-1.20;97.40;;;;;;5012289;28;20844;-70
2022/02/12 00:31:20;;;;;;;0.90;0.90;;;-1.30;97.30;;;;;;5013486;28;20322;-70
2022/02/12 00:33:45;;;;;;;0.40;0.40;;;-1.20;98.30;;;;;;5013505;28;20171;-70
2022/02/12 00:36:11;;;;;;;0.40;0.40;;;-1.20;97.70;;;;;;5013414;28;20198;-70
2022/02/12 00:38:37;;;;;;;0.40;0.40;;;-1.00;97.40;;;;;;5016399;28;20652;-70
2022/02/12 00:41:02;;;;;;;0.50;0.50;;;-1.00;97.40;;;;;;5017380;28;20286;-70
2022/02/12 00:43:28;;;;;;;0.40;0.40;;;-0.90;97.40;;;;;;5017367;28;20187;-70
2022/02/12 00:45:54;;;;;;;0.40;0.40;;;-0.80;97.20;;;;;;5017247;28;20775;-70
2022/02/12 00:48:19;;;;;;;0.40;0.40;;;-0.70;97.10;;;;;;5017373;28;20633;-70
2022/02/12 00:50:45;;;;;;;0.50;0.50;;;-0.60;96.90;;;;;;5017343;28;20195;-70
2022/02/12 00:53:11;;;;;;;0.30;0.30;;;-0.50;96.70;;;;;;5016867;28;20197;-70
2022/02/12 00:55:37;;;;;;;0.40;0.40;;;-0.70;97.00;;;;;;5016706;28;20465;-70
2022/02/12 00:58:02;;;;;;;0.40;0.40;;;-0.50;97.30;;;;;;5016883;28;20198;-70
2022/02/12 01:00:28;;;;;;;0.30;0.30;;;-0.60;97.30;;;;;;5016905;28;20622;-70
2022/02/12 01:02:54;;;;;;;0.40;0.40;;;-0.40;97.30;;;;;;5016703;28;20485;-70
2022/02/12 01:05:19;;;;;;;0.40;0.40;;;-0.20;97.20;;;;;;5016752;28;20434;-70
2022/02/12 01:07:45;;;;;;;0.40;0.40;;;-0.20;96.80;;;;;;5016615;28;20167;-70
2022/02/12 01:10:11;;;;;;;0.40;0.40;;;-0.10;96.60;;;;;;5016738;28;20202;-70
2022/02/12 01:12:37;;;;;;;0.40;0.40;;;-0.10;96.50;;;;;;5016668;28;20163;-70
2022/02/12 01:15:04;;;;;;;0.50;0.50;;;0.00;96.70;;;;;;5016646;28;20168;-71
2022/02/12 01:17:30;;;;;;;0.40;0.40;;;0.00;96.30;;;;;;5016808;28;20398;-70
2022/02/12 01:19:57;;;;;;;0.40;0.40;;;-0.10;96.10;;;;;;5016807;28;20179;-70
2022/02/12 01:22:24;;;;;;;0.30;0.30;;;-0.30;96.60;;;;;;5017025;28;20242;-70
2022/02/12 01:24:51;;;;;;;0.30;0.30;;;-0.20;96.80;;;;;;5016544;28;20168;-70
2022/02/12 01:27:17;;;;;;;0.40;0.30;;;-0.20;96.60;;;;;;5016380;28;20168;-70
2022/02/12 01:29:43;;;;;;;0.40;0.40;;;0.00;96.40;;;;;;5016745;28;20578;-70
2022/02/12 01:32:09;;;;;;;0.40;0.40;;;0.00;96.30;;;;;;5016383;28;20278;-70
2022/02/12 01:34:36;;;;;;;0.40;0.40;;;0.00;96.30;;;;;;5016498;28;20407;-70
2022/02/12 01:37:04;;;;;;;0.40;0.40;;;0.00;96.40;;;;;;5016153;28;20637;-70
2022/02/12 01:39:30;;;;;;;0.40;0.40;;;0.00;96.40;;;;;;5016230;28;20633;-70
2022/02/12 01:41:56;;;;;;;0.30;0.30;;;0.00;96.40;;;;;;5016309;28;20242;-70
2022/02/12 01:44:31;;;;;;;0.40;0.40;;;0.00;96.40;;;;;;5016266;28;20594;-70
2022/02/12 01:46:57;;;;;;;0.40;0.40;;;0.00;96.30;;;;;;5016123;28;20590;-70
2022/02/12 01:49:24;;;;;;;0.40;0.40;;;-0.10;96.20;;;;;;5015591;28;20637;-70
2022/02/12 01:51:49;;;;;;;0.40;0.40;;;-0.10;96.30;;;;;;5015956;28;20572;-70
2022/02/12 01:54:15;;;;;;;0.40;0.40;;;-0.10;96.30;;;;;;5015976;28;20199;-71
2022/02/12 01:56:44;;;;;;;0.40;0.40;;;-0.20;96.50;;;;;;5015966;28;20186;-70
2022/02/12 01:59:10;;;;;;;0.40;0.40;;;-0.20;96.40;;;;;;5014956;28;20179;-70
2022/02/12 02:01:36;;;;;;;0.40;0.40;;;-0.20;96.30;;;;;;5015891;28;20207;-70
2022/02/12 02:04:02;;;;;;;0.40;0.40;;;-0.20;96.10;;;;;;5015742;28;20406;-70
2022/02/12 02:06:27;;;;;;;0.40;0.40;;;-0.10;96.10;;;;;;5014344;28;20237;-70
2022/02/12 02:08:53;;;;;;;0.40;0.40;;;-0.30;96.10;;;;;;5014515;28;20203;-70
2022/02/12 02:11:19;;;;;;;0.30;0.30;;;-0.20;96.20;;;;;;5015662;28;20187;-71
2022/02/12 02:13:45;;;;;;;0.30;0.30;;;-0.10;96.00;;;;;;5015597;28;20176;-70
2022/02/12 02:16:12;;;;;;;0.40;0.40;;;-0.10;95.80;;;;;;5015473;28;20179;-70
2022/02/12 02:18:38;;;;;;;0.30;0.30;;;-0.10;95.70;;;;;;5015490;28;20398;-71
2022/02/12 02:21:06;;;;;;;0.30;0.30;;;-0.10;95.70;;;;;;5015365;28;20714;-70
2022/02/12 02:23:36;;;;;;;0.40;0.40;;;-0.20;95.80;;;;;;5015424;28;20411;-71
2022/02/12 02:26:03;;;;;;;0.40;0.40;;;-0.40;96.10;;;;;;5014031;28;20176;-70
2022/02/12 02:28:29;;;;;;;0.30;0.30;;;-0.40;96.10;;;;;;5015483;28;20172;-71
2022/02/12 02:30:54;;;;;;;0.40;0.40;;;-0.40;96.00;;;;;;5015360;28;20246;-70
2022/02/12 02:33:20;;;;;;;0.50;0.50;;;-0.30;95.80;;;;;;5015464;28;20167;-70
2022/02/12 02:35:47;;;;;;;0.40;0.40;;;-0.30;95.60;;;;;;5015459;28;20176;-70
2022/02/12 02:38:15;;;;;;;0.40;0.40;;;-0.30;95.50;;;;;;5015256;28;20398;-70
2022/02/12 02:40:42;;;;;;;0.40;0.40;;;-0.20;95.50;;;;;;5015012;28;20578;-71
2022/02/12 02:43:08;;;;;;;0.50;0.50;;;-0.40;95.50;;;;;;5015051;28;20175;-71
2022/02/12 02:45:35;;;;;;;0.47;0.47;;;-0.40;96.00;;;;;;5014997;28;20172;-71
2022/02/12 02:48:03;;;;;;;0.30;0.30;;;-0.40;95.80;;;;;;5013728;28;20172;-70
2022/02/12 02:56:01;;;;;;;0.40;0.40;;;-0.40;95.70;;;;;;5014790;28;20206;-70
2022/02/12 02:58:35;;;;;;;0.40;0.40;;;-0.30;95.90;;;;;;5015023;28;20250;-70
2022/02/12 03:01:02;;;;;;;0.40;0.40;;;-0.50;95.80;;;;;;5014029;28;20195;-71
2022/02/12 03:03:29;;;;;;;0.40;0.40;;;-0.60;96.00;;;;;;5014894;28;20242;-70
2022/02/12 03:05:57;;;;;;;0.40;0.40;;;-0.60;96.20;;;;;;5014570;28;20167;-71
2022/02/12 03:08:23;;;;;;;0.30;0.30;;;-0.50;96.20;;;;;;5014782;28;20160;-70
2022/02/12 03:10:48;;;;;;;0.50;0.50;;;-0.40;95.90;;;;;;5014658;28;20236;-71
2022/02/12 03:13:14;;;;;;;0.40;0.40;;;-0.40;96.00;;;;;;5014412;28;20171;-70
2022/02/12 03:15:40;;;;;;;0.30;0.30;;;-0.40;96.00;;;;;;5014189;28;20207;-71
2022/02/12 03:18:06;;;;;;;0.30;0.30;;;-0.50;95.80;;;;;;5014388;28;20171;-70
2022/02/12 03:20:32;;;;;;;0.40;0.40;;;-0.50;96.20;;;;;;5012938;28;20987;-70
2022/02/12 03:22:58;;;;;;;0.45;0.45;;;-0.60;96.30;;;;;;5014096;28;20585;-70
2022/02/12 03:25:24;;;;;;;0.50;0.50;;;-0.40;96.20;;;;;;5014045;28;20168;-70
2022/02/12 03:27:53;;;;;;;0.40;0.40;;;-0.40;95.90;;;;;;5014159;28;20904;-70
2022/02/12 03:30:19;;;;;;;0.47;0.47;;;-0.50;99.90;;;;;;5014228;28;20175;-71
2022/02/12 03:32:45;;;;;;;0.30;0.30;;;-0.50;95.90;;;;;;5014121;28;20668;-71
2022/02/12 03:35:11;;;;;;;0.40;0.40;;;-0.70;96.00;;;;;;5014015;28;20168;-71
2022/02/12 03:37:37;;;;;;;0.30;0.30;;;-0.60;96.30;;;;;;5014067;28;20190;-70
2022/02/12 03:40:04;;;;;;;0.47;0.47;;;-0.50;96.20;;;;;;5013939;28;20661;-70
2022/02/12 03:42:29;;;;;;;0.40;0.40;;;-0.60;95.90;;;;;;5013779;28;20223;-70
2022/02/12 03:44:55;;;;;;;0.40;0.40;;;-0.60;95.90;;;;;;5014233;28;20668;-70
2022/02/12 03:47:20;;;;;;;0.40;0.40;;;-0.70;96.00;;;;;;5013765;28;20167;-70
2022/02/12 03:49:46;;;;;;;0.40;0.40;;;-0.60;96.20;;;;;;5013963;28;20254;-70
2022/02/12 03:52:12;;;;;;;0.40;0.40;;;-0.60;96.20;;;;;;5013502;28;20202;-70
2022/02/12 03:54:37;;;;;;;0.30;0.30;;;-0.60;96.00;;;;;;5014152;28;20183;-70
2022/02/12 03:57:03;;;;;;;0.30;0.30;;;-0.70;95.80;;;;;;5013755;28;20203;-70
2022/02/12 03:59:29;;;;;;;0.30;0.30;;;-0.70;95.80;;;;;;5012671;28;20206;-70
2022/02/12 04:01:54;;;;;;;0.40;0.40;;;-0.70;96.10;;;;;;5013667;28;20258;-70
2022/02/12 04:04:20;;;;;;;0.60;0.60;;;-0.70;95.80;;;;;;5014005;28;20563;-71
2022/02/12 04:06:45;;;;;;;0.40;0.40;;;-0.80;96.00;;;;;;5013579;28;20175;-71
2022/02/12 04:09:11;;;;;;;0.47;0.47;;;-0.80;96.10;;;;;;5013723;28;20222;-70
2022/02/12 04:11:36;;;;;;;0.50;0.50;;;-0.70;96.10;;;;;;5013664;28;20311;-70
2022/02/12 04:14:02;;;;;;;0.50;0.50;;;-0.70;96.00;;;;;;5013510;28;20524;-71
2022/02/12 04:16:28;;;;;;;0.50;0.50;;;-0.70;95.90;;;;;;5013544;28;20186;-71
2022/02/12 04:18:54;;;;;;;0.40;0.40;;;-0.70;95.90;;;;;;5012415;28;20179;-70
2022/02/12 04:21:19;;;;;;;0.40;0.40;;;-0.80;95.90;;;;;;5013537;28;20668;-70
2022/02/12 04:23:45;;;;;;;0.40;0.40;;;-0.80;96.10;;;;;;5012365;28;20195;-70
2022/02/12 04:26:12;;;;;;;0.40;0.40;;;-0.80;96.10;;;;;;5013450;28;20175;-70
2022/02/12 04:28:38;;;;;;;0.50;0.50;;;-1.00;96.40;;;;;;5013611;28;20164;-71
2022/02/12 04:31:04;;;;;;;0.40;0.40;;;-0.90;96.70;;;;;;5013596;28;20191;-71
2022/02/12 04:33:31;;;;;;;0.50;0.50;;;-0.80;96.60;;;;;;5012242;28;20266;-71
2022/02/12 04:35:57;;;;;;;0.45;0.45;;;-1.20;96.60;;;;;;5013368;28;20190;-70
2022/02/12 04:38:23;;;;;;;0.50;0.50;;;-1.00;96.90;;;;;;5013422;28;20171;-70
2022/02/12 04:40:49;;;;;;;0.57;0.57;;;-1.00;96.80;;;;;;5013328;28;20215;-71
2022/02/12 04:43:14;;;;;;;0.40;0.40;;;-0.90;96.70;;;;;;5013408;28;20250;-71
2022/02/12 04:45:40;;;;;;;0.40;0.40;;;-0.70;96.40;;;;;;5013339;28;20168;-71
2022/02/12 04:48:05;;;;;;;0.40;0.40;;;-0.70;96.10;;;;;;5013659;28;20171;-71
2022/02/12 04:50:32;;;;;;;0.40;0.40;;;-0.60;95.90;;;;;;5013458;28;20184;-71
2022/02/12 04:52:57;;;;;;;0.50;0.50;;;-0.60;95.80;;;;;;5013192;28;20524;-70
2022/02/12 04:55:24;;;;;;;0.40;0.40;;;-0.70;95.60;;;;;;5011972;28;20221;-71
2022/02/12 04:57:50;;;;;;;2.03;1.75;;;-0.60;95.60;;;;;;5013346;28;20172;-70
2022/02/12 05:00:16;;;;;;;0.50;0.50;;;-0.60;96.50;;;;;;5013200;28;20187;-70
2022/02/12 05:02:42;;;;;;;0.40;0.40;;;-0.60;95.30;;;;;;5013108;28;20414;-70
2022/02/12 05:05:09;;;;;;;0.40;0.40;;;-0.50;95.30;;;;;;5013033;28;20508;-70
2022/02/12 05:07:35;;;;;;;0.40;0.40;;;-0.60;95.20;;;;;;5013182;28;20865;-70
2022/02/12 05:10:01;;;;;;;0.40;0.40;;;-0.60;95.20;;;;;;5013075;28;20164;-70
2022/02/12 05:12:26;;;;;;;0.40;0.40;;;-0.60;95.30;;;;;;5013064;28;20864;-70
2022/02/12 05:14:53;;;;;;;0.40;0.40;;;-0.60;95.50;;;;;;5011835;28;20246;-70
2022/02/12 05:17:18;;;;;;;0.40;0.40;;;-0.60;95.10;;;;;;5013115;28;20538;-71
2022/02/12 05:19:44;;;;;;;0.37;0.37;;;-0.60;95.00;;;;;;5011956;28;20179;-71
2022/02/12 05:22:10;;;;;;;0.40;0.40;;;-0.70;94.80;;;;;;5012999;28;20195;-70
2022/02/12 05:24:36;;;;;;;0.30;0.30;;;-0.70;94.90;;;;;;5014090;28;20641;-71
2022/02/12 05:27:01;;;;;;;0.30;0.30;;;-0.60;94.90;;;;;;5016379;28;20535;-70
2022/02/12 05:29:27;;;;;;;0.50;0.50;;;-0.60;95.00;;;;;;5016571;28;20164;-70
2022/02/12 05:31:53;;;;;;;0.50;0.50;;;-0.70;94.60;;;;;;5016640;28;20285;-70
2022/02/12 05:34:19;;;;;;;0.40;0.40;;;1.90;95.90;;;;;;5016354;28;20175;-72
2022/02/12 05:36:45;;;;;;;0.43;0.43;;;-0.70;94.60;;;;;;5016275;28;20757;-72
2022/02/12 05:39:12;;;;;;;0.40;0.40;;;-0.70;94.70;;;;;;5016324;28;20211;-72
2022/02/12 05:41:38;;;;;;;0.40;0.40;;;-0.80;94.70;;;;;;5016203;28;20203;-72
2022/02/12 05:44:05;;;;;;;0.40;0.40;;;-0.80;94.80;;;;;;5016349;28;20171;-72
2022/02/12 05:46:31;;;;;;;0.30;0.30;;;-0.80;94.80;;;;;;5014696;28;20653;-72
2022/02/12 05:48:57;;;;;;;0.40;0.40;;;-0.80;94.90;;;;;;5016238;28;20184;-72
2022/02/12 05:51:23;;;;;;;0.40;0.40;;;-0.90;94.90;;;;;;5015978;28;20430;-72
2022/02/12 05:53:49;;;;;;;0.40;0.40;;;-0.90;95.10;;;;;;5016075;28;20644;-72
2022/02/12 05:56:15;;;;;;;0.43;0.43;;;-0.80;95.10;;;;;;5014604;28;20646;-72
2022/02/12 05:58:41;;;;;;;0.50;0.50;;;-0.90;94.90;;;;;;5016029;28;20183;-72
2022/02/12 06:01:06;;;;;;;0.50;0.50;;;-0.90;94.90;;;;;;5015887;28;21001;-72
2022/02/12 06:03:32;;;;;;;0.50;0.50;;;-0.90;94.90;;;;;;5015788;28;20175;-72
2022/02/12 06:05:58;;;;;;;0.40;0.40;;;-1.10;94.90;;;;;;5015628;28;20174;-72
2022/02/12 06:08:23;;;;;;;0.50;0.50;;;-1.10;95.00;;;;;;5015838;28;20176;-72
2022/02/12 06:10:53;;;;;;;0.50;0.50;;;-1.10;95.10;;;;;;5015729;28;20219;-72
2022/02/12 06:13:18;;;;;;;0.47;0.47;;;-1.20;95.30;;;;;;5015753;28;20163;-72
2022/02/12 06:15:44;;;;;;;0.43;0.43;;;-1.20;95.40;;;;;;5014295;28;20180;-72
2022/02/12 06:18:10;;;;;;;0.40;0.40;;;-1.20;95.50;;;;;;5014481;28;20172;-72
2022/02/12 06:20:36;;;;;;;0.40;0.40;;;-1.20;95.60;;;;;;5015385;28;20739;-72
2022/02/12 06:23:01;;;;;;;0.40;0.40;;;-1.30;95.60;;;;;;5015658;28;20171;-72
2022/02/12 06:25:27;;;;;;;0.40;0.40;;;-1.20;95.70;;;;;;5015445;28;20661;-72
2022/02/12 06:27:53;;;;;;;0.30;0.30;;;-1.30;95.70;;;;;;5015541;28;20168;-72
2022/02/12 06:30:19;;;;;;;0.40;0.40;;;-1.30;95.90;;;;;;5015445;28;20208;-72
2022/02/12 06:32:44;;;;;;;0.40;0.40;;;-1.30;95.90;;;;;;5015265;28;20167;-72
2022/02/12 06:35:10;;;;;;;0.43;0.43;;;-1.20;95.80;;;;;;5014966;28;20172;-72
2022/02/12 06:37:36;;;;;;;0.40;0.40;;;-1.40;95.60;;;;;;5014038;28;20176;-72
2022/02/12 06:40:03;;;;;;;0.40;0.40;;;-1.70;96.40;;;;;;5015229;28;20164;-71
2022/02/12 06:42:28;;;;;;;0.40;0.40;;;-1.60;96.80;;;;;;5014779;28;20266;-72
2022/02/12 06:44:54;;;;;;;0.40;0.40;;;-1.40;96.80;;;;;;5015126;28;20246;-72
2022/02/12 06:47:20;;;;;;;0.40;0.40;;;-1.30;96.80;;;;;;5015053;28;20635;-72
2022/02/12 06:49:45;;;;;;;0.40;0.40;;;-1.20;96.10;;;;;;5014964;28;20166;-72
2022/02/12 06:52:11;;;;;;;0.40;0.40;;;-1.30;95.90;;;;;;5014752;28;20278;-72
2022/02/12 06:54:37;;;;;;;0.30;0.30;;;-1.20;96.10;;;;;;5015080;28;20411;-72
2022/02/12 06:57:03;;;;;;;0.40;0.40;;;-1.10;96.00;;;;;;5014822;28;20179;-72
2022/02/12 06:59:29;;;;;;;0.30;0.30;;;-1.00;95.80;;;;;;5015300;28;20180;-72
2022/02/12 07:01:55;;;;;;;0.50;0.50;;;-1.00;95.30;;;;;;5014791;28;20552;-72
2022/02/12 07:04:20;;;;;;;0.40;0.40;;;-0.90;95.30;;;;;;5013470;28;20417;-72
2022/02/12 07:06:46;;;;;;;0.30;0.30;;;-0.80;95.10;;;;;;5014429;28;20210;-72
2022/02/12 07:09:12;;;;;;;0.40;0.40;;;-0.70;94.60;;;;;;5014674;28;20174;-72
2022/02/12 07:11:38;;;;;;;0.40;0.40;;;-0.70;94.30;;;;;;5014728;28;20203;-72
2022/02/12 07:14:04;;;;;;;0.40;0.40;;;-0.60;94.20;;;;;;5014559;28;20171;-72
2022/02/12 07:16:30;;;;;;;0.40;0.40;;;-0.60;93.50;;;;;;5013076;28;20645;-72
2022/02/12 07:18:56;;;;;;;0.40;0.40;;;-0.40;93.30;;;;;;5014467;28;20407;-72
2022/02/12 07:21:22;;;;;;;0.30;0.30;;;-0.30;93.30;;;;;;5014334;28;20692;-73
2022/02/12 07:23:48;;;;;;;0.45;0.45;;;-0.30;93.20;;;;;;5014478;28;20920;-72
2022/02/12 07:26:14;;;;;;;0.30;0.30;;;-0.30;93.10;;;;;;5014239;28;20180;-72
2022/02/12 07:28:42;;;;;;;0.40;0.40;;;-0.30;93.00;;;;;;5014459;28;20171;-72
2022/02/12 07:31:18;;;;;;;0.40;0.40;;;-0.20;92.80;;;;;;5014410;28;20437;-72
2022/02/12 07:33:44;;;;;;;0.40;0.40;;;-0.20;92.70;;;;;;5014193;28;20171;-72
2022/02/12 07:36:11;;;;;;;0.30;0.30;;;-0.20;92.40;;;;;;5013970;28;20582;-72
2022/02/12 07:38:37;;;;;;;0.40;0.40;;;0.00;92.30;;;;;;5014233;28;20172;-72
2022/02/12 07:41:03;;;;;;;0.40;0.40;;;-0.10;92.00;;;;;;5014136;28;20562;-72
2022/02/12 07:43:29;;;;;;;0.40;0.40;;;0.00;91.80;;;;;;5014037;28;20172;-72
2022/02/12 07:45:54;;;;;;;0.40;0.40;;;0.20;91.90;;;;;;5013890;28;20461;-72
2022/02/12 07:48:20;;;;;;;0.30;0.30;;;0.10;91.10;;;;;;5013551;28;20176;-72
2022/02/12 07:50:46;;;;;;;0.47;0.47;;;0.30;91.70;;;;;;5012619;28;20203;-72
2022/02/12 07:53:14;;;;;;;0.30;0.30;;;0.90;92.40;;;;;;5013808;28;20202;-72
2022/02/12 07:55:43;;;;;;;0.30;0.30;;;2.50;92.40;;;;;;5013909;28;20772;-72
2022/02/12 07:58:09;;;;;;;0.38;0.38;;;4.10;90.20;;;;;;5012784;28;20187;-72
2022/02/12 08:00:35;;;;;;;0.40;0.40;;;5.40;82.00;;;;;;5013750;28;20198;-72
2022/02/12 08:03:01;;;;;;;0.30;0.30;;;6.20;73.90;;;;;;5013988;28;20167;-72
2022/02/12 08:05:27;;;;;;;0.37;0.37;;;7.60;68.40;;;;;;5013670;28;20667;-72
2022/02/12 08:07:52;;;;;;;0.33;0.33;;;8.80;58.20;;;;;;5013998;28;20901;-72
2022/02/12 08:13:03;;;;;;;0.38;0.38;;;10.10;49.00;;;;;;5014189;28;20200;-72
2022/02/12 08:15:29;;;;;;;0.40;0.40;;;9.40;49.40;;;;;;5013534;28;20173;-72
2022/02/12 08:17:57;;;;;;;0.30;0.30;;;9.20;49.30;;;;;;5013865;28;20444;-72
2022/02/12 08:20:23;;;;;;;0.40;0.40;;;9.20;49.90;;;;;;5013449;28;20174;-72
2022/02/12 08:22:51;;;;;;;0.30;0.30;;;9.90;49.30;;;;;;5013666;28;20198;-72
2022/02/12 08:25:17;;;;;;;0.40;0.40;;;11.00;46.00;;;;;;5013391;28;20695;-72
2022/02/12 08:27:42;;;;;;;0.30;0.30;;;11.10;42.90;;;;;;5014003;28;20178;-72
2022/02/12 08:30:08;;;;;;;0.30;0.30;;;11.30;44.10;;;;;;5013551;28;20175;-72
2022/02/12 08:32:35;;;;;;;0.33;0.33;;;12.00;42.60;;;;;;5013467;28;20563;-72
2022/02/12 08:35:01;;;;;;;0.30;0.30;;;11.90;41.10;;;;;;5013464;28;20814;-72
2022/02/12 08:37:27;;;;;;;0.30;0.30;;;12.10;41.30;;;;;;5013644;28;20184;-72
2022/02/12 08:39:53;;;;;;;0.30;0.30;;;12.70;38.50;;;;;;5012385;28;20551;-72
2022/02/12 08:42:20;;;;;;;0.30;0.30;;;12.60;38.70;;;;;;5013686;28;20209;-72
2022/02/12 08:44:47;;;;;;;0.30;0.30;;;12.50;38.60;;;;;;5013458;28;20245;-72
2022/02/12 08:47:13;;;;;;;0.30;0.30;;;13.10;38.70;;;;;;5013321;28;20207;-72
2022/02/12 08:49:39;;;;;;;0.30;0.30;;;14.10;36.40;;;;;;5012257;28;20410;-72
2022/02/12 08:52:05;;;;;;;0.30;0.30;;;14.80;35.60;;;;;;5013085;28;20426;-72
2022/02/12 08:54:33;;;;;;;0.30;0.30;;;15.50;34.20;;;;;;5013512;28;20951;-72
2022/02/12 08:56:59;;;;;;;0.30;0.30;;;15.00;33.50;;;;;;5013192;28;20411;-72
2022/02/12 08:59:25;;;;;;;0.30;0.30;;;14.50;34.60;;;;;;5014131;28;20413;-72
2022/02/12 09:01:50;;;;;;;0.30;0.30;;;14.60;34.00;;;;;;5016880;28;20689;-72
2022/02/12 09:04:16;;;;;;;0.30;0.30;;;14.50;34.40;;;;;;5016973;28;20168;-72
2022/02/12 09:06:42;;;;;;;0.30;0.30;;;14.80;34.30;;;;;;5016641;28;20255;-73
2022/02/12 09:09:09;;;;;;;0.30;0.30;;;15.10;33.00;;;;;;5017311;28;20179;-70
2022/02/12 09:11:39;;;;;;;0.30;0.30;;;15.30;32.90;;;;;;5016934;28;20253;-70
2022/02/12 09:14:05;;;;;;;0.40;0.40;;;15.20;31.90;;;;;;5016992;28;20425;-70
2022/02/12 09:16:31;;;;;;;0.40;0.40;;;14.20;33.10;;;;;;5016671;28;20406;-70
2022/02/12 09:18:57;;;;;;;0.30;0.30;;;13.60;34.40;;;;;;5016902;28;20414;-70
2022/02/12 09:21:23;;;;;;;0.30;0.30;;;13.60;33.30;;;;;;5016712;28;20454;-70
2022/02/12 09:23:50;;;;;;;0.30;0.30;;;14.50;32.90;;;;;;5016852;28;20167;-70
2022/02/12 09:26:19;;;;;;;0.30;0.30;;;15.00;32.00;;;;;;5016434;28;20764;-70
2022/02/12 09:28:44;;;;;;;0.37;0.37;;;15.10;31.80;;;;;;5016886;28;20410;-70
2022/02/12 09:31:10;;;;;;;0.30;0.30;;;15.30;30.70;;;;;;5015156;28;20975;-70
2022/02/12 09:33:36;;;;;;;0.30;0.30;;;15.60;29.90;;;;;;5015106;28;20253;-70
2022/02/12 09:36:03;;;;;;;0.40;0.40;;;15.60;30.40;;;;;;5016326;28;20168;-70
2022/02/12 09:38:29;;;;;;;0.30;0.30;;;16.60;29.70;;;;;;5016517;28;20437;-70
2022/02/12 09:40:56;;;;;;;0.30;0.30;;;17.60;28.60;;;;;;5016475;28;20809;-70
2022/02/12 09:43:25;;;;;;;0.30;0.30;;;18.80;27.80;;;;;;5016176;28;20422;-70
2022/02/12 09:45:59;;;;;;;0.30;0.30;;;18.90;27.10;;;;;;5015945;28;20413;-70
2022/02/12 09:48:26;;;;;;;0.30;0.30;;;17.90;27.40;;;;;;5016328;28;20837;-70
2022/02/12 09:50:52;;;;;;;0.30;0.30;;;16.60;27.20;;;;;;5016056;28;20809;-70
2022/02/12 09:53:18;;;;;;;0.30;0.30;;;16.00;28.70;;;;;;5016160;28;20484;-70
2022/02/12 09:55:44;;;;;;;0.40;0.40;;;16.50;28.90;;;;;;5015837;28;20178;-70
2022/02/12 09:58:14;;;;;;;0.30;0.30;;;17.40;27.90;;;;;;5015068;28;20501;-70
2022/02/12 10:00:40;;;;;;;0.30;0.30;;;16.50;28.10;;;;;;5016002;28;20195;-70
2022/02/12 10:03:06;;;;;;;0.30;0.30;;;13.70;29.90;;;;;;5015806;28;20484;-70
2022/02/12 10:05:31;;;;;;;0.30;0.30;;;12.70;32.60;;;;;;5015623;28;20636;-70
2022/02/12 10:08:00;;;;;;;0.30;0.30;;;13.70;32.10;;;;;;5014586;28;20799;-70
2022/02/12 10:10:28;;;;;;;0.30;0.30;;;14.40;32.20;;;;;;5015396;28;20406;-70
2022/02/12 10:13:12;;;;;;;0.40;0.40;;;15.50;30.10;;;;;;5015684;28;20784;-70
2022/02/12 10:15:38;;;;;;;0.40;0.40;;;16.60;29.80;;;;;;5015556;28;20434;-70
2022/02/12 10:18:04;;;;;;;0.30;0.30;;;17.70;28.60;;;;;;5015604;28;20801;-70
2022/02/12 10:20:34;;;;;;;0.30;0.30;;;17.80;27.90;;;;;;5015345;28;20452;-70
2022/02/12 10:23:19;;;;;;;0.30;0.30;;;17.30;28.10;;;;;;5015596;28;20649;-70
2022/02/12 10:25:50;;;;;;;0.33;0.33;;;17.60;28.50;;;;;;5015486;28;20402;-70
2022/02/12 10:28:18;;;;;;;0.30;0.30;;;18.00;27.60;;;;;;5015403;28;20395;-70
2022/02/12 10:30:47;;;;;;;0.30;0.30;;;18.40;27.70;;;;;;5015301;28;20430;-70
2022/02/12 10:33:14;;;;;;;0.30;0.30;;;17.50;26.60;;;;;;5015277;28;20407;-70
2022/02/12 10:35:41;;;;;;;0.30;0.30;;;16.60;28.20;;;;;;5015113;28;20439;-70
2022/02/12 10:38:10;;;;;;;0.30;0.30;;;16.40;27.90;;;;;;5015355;28;20486;-70
2022/02/12 10:40:37;;;;;;;0.60;0.60;;;16.40;27.80;;;;;;5015168;28;20484;-70
2022/02/12 10:43:03;;;;;;;0.30;0.30;;;16.90;28.30;;;;;;5015074;28;20399;-70
2022/02/12 10:45:30;;;;;;;0.30;0.30;;;16.60;28.10;;;;;;5014993;28;20494;-70
2022/02/12 10:47:58;;;;;;;0.30;0.30;;;16.50;27.60;;;;;;5015114;28;20464;-70
2022/02/12 10:50:26;;;;;;;0.80;0.80;;;15.20;28.70;;;;;;5015213;28;20391;-70
2022/02/12 10:52:58;;;;;;;0.30;0.30;;;15.40;28.70;;;;;;5014776;28;20426;-71
2022/02/12 10:55:31;;;;;;;0.40;0.40;;;15.60;28.60;;;;;;5014912;28;20509;-70
2022/02/12 10:58:13;;;;;;;0.30;0.30;;;15.50;28.60;;;;;;5015150;28;20407;-71
2022/02/12 11:00:41;;;;;;;0.30;0.30;;;15.00;28.80;;;;;;5015067;28;20892;-70
2022/02/12 11:03:10;;;;;;;0.30;0.30;;;14.40;29.20;;;;;;5014769;28;20409;-70
2022/02/12 11:05:38;;;;;;;0.33;0.33;;;14.00;29.90;;;;;;5014657;28;20497;-70
2022/02/12 11:08:07;;;;;;;0.30;0.30;;;13.30;30.00;;;;;;5015057;28;20395;-70
2022/02/12 11:10:34;;;;;;;0.30;0.30;;;12.80;30.40;;;;;;5014749;28;20432;-71
2022/02/12 11:13:00;;;;;;;0.30;0.30;;;12.60;31.40;;;;;;5014602;28;20460;-70
2022/02/12 11:15:30;;;;;;;0.32;0.32;;;12.10;31.20;;;;;;5014485;28;20199;-71
2022/02/12 11:17:58;;;;;;;0.30;0.30;;;11.40;32.60;;;;;;5014624;28;20286;-70
2022/02/12 11:20:25;;;;;;;0.30;0.30;;;11.30;33.80;;;;;;5014386;28;20182;-70
2022/02/12 11:23:24;;;;;;;0.30;0.30;;;11.40;33.80;;;;;;5013618;28;20744;-70
2022/02/12 11:26:22;;;;;;;0.30;0.30;;;11.20;33.40;;;;;;5014246;28;20572;-70
2022/02/12 11:28:48;;;;;;;0.30;0.30;;;10.90;33.40;;;;;;5012156;28;20186;-70
2022/02/12 11:31:27;;;;;;;0.30;0.30;;;10.60;34.50;;;;;;5014366;28;20206;-73
2022/02/12 11:34:17;;;;;;;0.40;0.40;;;10.60;36.50;;;;;;5014426;28;20187;-71
2022/02/12 11:36:46;;;;;;;0.30;0.30;;;10.60;36.10;;;;;;5014068;28;20172;-71
2022/02/12 11:39:13;;;;;;;0.38;0.38;;;10.30;40.30;;;;;;5014313;28;20646;-71
2022/02/12 11:41:41;;;;;;;0.30;0.30;;;10.00;37.30;;;;;;5014105;28;20197;-71
2022/02/12 11:44:07;;;;;;;0.63;0.63;;;9.80;37.70;;;;;;5014147;28;20258;-70
2022/02/12 11:46:51;;;;;;;0.30;0.30;;;9.80;37.50;;;;;;5014028;28;20164;-70
2022/02/12 11:49:31;;;;;;;0.32;0.32;;;9.90;36.80;;;;;;5014056;28;20171;-71
2022/02/12 11:52:00;;;;;;;0.40;0.40;;;9.50;35.50;;;;;;5012569;28;20206;-71
2022/02/12 11:54:44;;;;;;;0.32;0.32;;;9.20;36.30;;;;;;5014012;28;20253;-70
2022/02/12 11:57:14;;;;;;;0.40;0.40;;;8.60;36.80;;;;;;5013725;28;20174;-70
2022/02/12 11:59:39;;;;;;;0.30;0.30;;;8.30;37.20;;;;;;5014017;28;20511;-70
2022/02/12 12:02:05;;;;;;;0.40;0.40;;;7.90;41.10;;;;;;5013697;28;20205;-71
2022/02/12 12:04:32;;;;;;;0.40;0.40;;;7.50;38.90;;;;;;5014089;28;20174;-70
2022/02/12 12:07:14;;;;;;;0.40;0.40;;;7.80;39.00;;;;;;5013669;28;20196;-70
2022/02/12 12:09:59;;;;;;;0.30;0.30;;;8.30;38.90;;;;;;5014006;28;20167;-70
2022/02/12 12:12:25;;;;;;;0.30;0.30;;;8.70;40.00;;;;;;5012154;28;20332;-70
2022/02/12 12:15:11;;;;;;;0.40;0.40;;;8.70;41.70;;;;;;5013732;28;20260;-71
2022/02/12 12:17:37;;;;;;;0.35;0.35;;;9.10;39.30;;;;;;5013648;28;20174;-70
2022/02/12 12:20:03;;;;;;;0.40;0.40;;;9.10;38.20;;;;;;5013768;28;20627;-70
2022/02/12 12:22:29;;;;;;;0.30;0.30;;;9.20;40.20;;;;;;5012203;28;20667;-71
2022/02/12 12:24:59;;;;;;;0.40;0.40;;;9.40;40.80;;;;;;5013570;28;20175;-70
2022/02/12 12:27:24;;;;;;;0.50;0.50;;;9.20;43.20;;;;;;5013486;28;20175;-70
2022/02/12 12:32:34;;;;;;;0.40;0.40;;;8.80;42.10;;;;;;5013490;28;20217;-71
2022/02/12 12:35:03;;;;;;;0.30;0.30;;;8.40;42.50;;;;;;5017260;28;20177;-71
2022/02/12 12:37:52;;;;;;;0.40;0.40;;;8.10;43.20;;;;;;5017466;28;20553;-71
2022/02/12 12:40:27;;;;;;;0.40;0.40;;;7.80;45.00;;;;;;5017452;28;20172;-70
2022/02/12 12:43:06;;;;;;;0.47;0.47;;;7.80;44.00;;;;;;5017330;28;20247;-70
2022/02/12 12:45:38;;;;;;;0.40;0.40;;;8.20;43.30;;;;;;5017293;28;20168;-71
2022/02/12 12:48:04;;;;;;;0.40;0.40;;;8.40;43.70;;;;;;5016104;28;20256;-71
2022/02/12 12:50:35;;;;;;;0.50;0.50;;;8.80;44.00;;;;;;5017389;28;20711;-71
2022/02/12 12:53:06;;;;;;;0.30;0.30;;;8.90;43.00;;;;;;5017056;28;20455;-70
2022/02/12 12:55:32;;;;;;;0.30;0.30;;;8.70;42.30;;;;;;5017149;28;20186;-71
2022/02/12 12:57:57;;;;;;;0.40;0.40;;;8.60;45.00;;;;;;5017299;28;20170;-71
2022/02/12 13:00:25;;;;;;;0.40;0.40;;;8.60;45.80;;;;;;5017609;28;20413;-71